createdAt,value
2022-10-11T00:03:08.787Z,92.60
2022-10-11T00:06:33.866Z,92.90
2022-10-11T00:09:57.701Z,92.90
2022-10-11T00:13:21.237Z,92.70
2022-10-11T00:16:45.238Z,92.30
2022-10-11T00:20:09.977Z,91.70
2022-10-11T00:23:37.074Z,91.20
2022-10-11T00:27:01.564Z,90.90
2022-10-11T00:30:26.381Z,90.80
2022-10-11T00:33:50.883Z,90.90
2022-10-11T00:37:14.470Z,90.90
2022-10-11T00:40:39.811Z,90.70
2022-10-11T00:44:15.894Z,90.80
2022-10-11T00:47:39.409Z,90.90
2022-10-11T00:51:11.363Z,91.20
2022-10-11T00:54:41.041Z,91.30
2022-10-11T00:58:07.352Z,91.50
2022-10-11T01:01:31.041Z,91.60
2022-10-11T01:05:17.971Z,91.70
2022-10-11T01:08:40.675Z,91.60
2022-10-11T01:12:13.235Z,91.20
2022-10-11T01:15:48.035Z,91.00
2022-10-11T01:19:35.099Z,90.70
2022-10-11T01:23:48.510Z,90.40
2022-10-11T01:27:47.175Z,89.30
2022-10-11T01:31:23.877Z,89.20
2022-10-11T01:34:58.571Z,89.60
2022-10-11T01:38:31.172Z,89.80
2022-10-11T01:42:00.150Z,89.90
2022-10-11T01:45:25.482Z,90.00
2022-10-11T01:48:54.334Z,90.40
2022-10-11T01:52:17.800Z,90.70
2022-10-11T01:55:51.444Z,91.10
2022-10-11T01:59:36.283Z,91.10
2022-10-11T02:03:19.700Z,91.20
2022-10-11T02:06:55.924Z,91.30
2022-10-11T02:10:31.949Z,91.40
2022-10-11T02:14:01.117Z,91.70
2022-10-11T02:17:31.528Z,91.70
2022-10-11T02:21:00.695Z,91.80
2022-10-11T02:24:31.386Z,92.00
2022-10-11T02:28:00.090Z,92.00
2022-10-11T02:31:26.572Z,92.00
2022-10-11T02:34:55.889Z,92.20
2022-10-11T02:38:25.379Z,92.60
2022-10-11T02:41:56.516Z,92.90
2022-10-11T02:45:28.609Z,93.30
2022-10-11T02:48:52.536Z,93.40
2022-10-11T02:52:16.164Z,93.40
2022-10-11T02:55:39.732Z,93.40
2022-10-11T02:59:04.648Z,93.50
2022-10-11T03:02:28.163Z,93.60
2022-10-11T03:05:51.667Z,93.70
2022-10-11T03:09:15.265Z,93.60
2022-10-11T03:12:38.909Z,93.70
2022-10-11T03:16:03.955Z,94.00
2022-10-11T03:19:27.596Z,93.90
2022-10-11T03:22:51.085Z,94.30
2022-10-11T03:26:14.652Z,94.30
2022-10-11T03:29:38.159Z,94.40
2022-10-11T03:33:05.195Z,94.60
2022-10-11T03:36:28.892Z,94.50
2022-10-11T03:39:52.513Z,94.80
2022-10-11T03:43:16.570Z,94.70
2022-10-11T03:46:40.461Z,94.60
2022-10-11T03:50:06.141Z,94.60
2022-10-11T03:53:29.893Z,94.50
2022-10-11T03:56:53.560Z,94.60
2022-10-11T04:00:17.497Z,94.40
2022-10-11T04:03:41.146Z,94.20
2022-10-11T04:07:06.461Z,94.20
2022-10-11T04:10:31.054Z,93.60
2022-10-11T04:13:54.632Z,93.70
2022-10-11T04:17:18.425Z,93.70
2022-10-11T04:20:42.643Z,93.70
2022-10-11T04:24:08.390Z,93.70
2022-10-11T04:27:32.187Z,93.70
2022-10-11T04:30:55.655Z,93.80
2022-10-11T04:34:19.736Z,93.80
2022-10-11T04:37:43.277Z,93.90
2022-10-11T04:41:14.144Z,93.80
2022-10-11T04:44:37.866Z,93.70
2022-10-11T04:48:01.310Z,94.00
2022-10-11T04:51:25.797Z,94.20
2022-10-11T04:54:49.306Z,94.20
2022-10-11T04:58:14.150Z,94.00
2022-10-11T05:01:38.090Z,93.80
2022-10-11T05:05:01.590Z,93.70
2022-10-11T05:08:25.327Z,93.50
2022-10-11T05:11:48.811Z,93.80
2022-10-11T05:15:13.976Z,93.80
2022-10-11T05:18:37.992Z,93.70
2022-10-11T05:22:01.567Z,94.30
2022-10-11T05:25:25.155Z,94.20
2022-10-11T05:28:49.379Z,94.20
2022-10-11T05:32:14.284Z,94.00
2022-10-11T05:35:37.772Z,93.60
2022-10-11T05:39:01.200Z,93.70
2022-10-11T05:42:24.819Z,93.60
2022-10-11T05:45:48.320Z,93.70
2022-10-11T05:49:13.103Z,93.80
2022-10-11T05:52:36.648Z,93.70
2022-10-11T05:56:00.934Z,93.80
2022-10-11T05:59:24.387Z,93.70
2022-10-11T06:02:47.883Z,93.50
2022-10-11T06:06:12.699Z,93.50
2022-10-11T06:09:36.493Z,93.60
2022-10-11T06:13:00.422Z,93.80
2022-10-11T06:16:24.292Z,93.70
2022-10-11T06:19:47.755Z,94.00
2022-10-11T06:23:12.609Z,93.90
2022-10-11T06:26:36.721Z,93.70
2022-10-11T06:30:00.882Z,93.50
2022-10-11T06:33:27.692Z,93.20
2022-10-11T06:36:51.563Z,92.90
2022-10-11T06:40:16.585Z,93.30
2022-10-11T06:43:40.029Z,93.20
2022-10-11T06:47:03.472Z,93.50
2022-10-11T06:50:54.345Z,93.30
2022-10-11T06:54:10.436Z,93.30
2022-10-11T06:57:35.336Z,93.20
2022-10-11T07:01:02.321Z,92.90
2022-10-11T07:04:28.148Z,92.90
2022-10-11T07:07:51.642Z,93.00
2022-10-11T07:11:17.964Z,93.00
2022-10-11T07:14:43.039Z,92.80
2022-10-11T07:18:07.201Z,92.60
2022-10-11T07:21:33.359Z,92.60
2022-10-11T07:24:56.917Z,92.70
2022-10-11T07:28:20.558Z,93.10
2022-10-11T07:31:45.870Z,93.20
2022-10-11T07:35:09.940Z,93.30
2022-10-11T07:38:33.757Z,93.40
2022-10-11T07:41:57.272Z,93.50
2022-10-11T07:45:20.745Z,93.80
2022-10-11T07:48:45.618Z,93.90
2022-10-11T07:52:09.107Z,93.40
2022-10-11T07:55:40.103Z,93.40
2022-10-11T07:59:04.337Z,92.80
2022-10-11T08:02:27.795Z,93.30
2022-10-11T08:05:53.108Z,93.20
2022-10-11T08:09:16.657Z,93.10
2022-10-11T08:12:40.163Z,93.30
2022-10-11T08:16:12.494Z,93.40
2022-10-11T08:19:36.005Z,92.60
2022-10-11T08:23:00.919Z,93.20
2022-10-11T08:26:25.971Z,92.80
2022-10-11T08:29:49.553Z,92.80
2022-10-11T08:33:12.993Z,92.70
2022-10-11T08:36:37.456Z,92.50
2022-10-11T08:40:03.340Z,92.30
2022-10-11T08:43:46.687Z,92.00
2022-10-11T08:47:19.121Z,91.70
2022-10-11T08:50:47.454Z,92.50
2022-10-11T08:54:20.665Z,92.60
2022-10-11T08:57:53.045Z,92.30
2022-10-11T09:01:22.071Z,92.10
2022-10-11T09:04:54.676Z,91.80
2022-10-11T09:08:30.460Z,91.50
2022-10-11T09:12:16.651Z,91.40
2022-10-11T09:15:50.417Z,90.90
2022-10-11T09:19:39.301Z,91.00
2022-10-11T09:23:10.340Z,90.80
2022-10-11T09:26:44.056Z,91.20
2022-10-11T09:30:16.121Z,91.10
2022-10-11T09:33:46.842Z,91.10
2022-10-11T09:37:22.033Z,91.00
2022-10-11T09:41:04.290Z,90.90
2022-10-11T09:44:33.945Z,91.00
2022-10-11T09:48:02.869Z,91.40
2022-10-11T09:51:29.347Z,91.60
2022-10-11T09:54:57.906Z,91.60
2022-10-11T09:58:31.080Z,90.90
2022-10-11T10:02:20.170Z,90.70
2022-10-11T10:05:43.748Z,90.80
2022-10-11T10:09:28.839Z,92.20
2022-10-11T10:12:56.505Z,91.40
2022-10-11T10:16:28.024Z,92.10
2022-10-11T10:19:55.805Z,92.20
2022-10-11T10:23:25.671Z,92.00
2022-10-11T10:27:17.990Z,91.40
2022-10-11T10:30:54.459Z,90.60
2022-10-11T10:34:26.031Z,91.00
2022-10-11T10:37:57.715Z,91.30
2022-10-11T10:41:21.358Z,91.80
2022-10-11T10:44:52.589Z,92.50
2022-10-11T10:48:53.801Z,92.80
2022-10-11T10:52:55.526Z,92.60
2022-10-11T10:56:28.866Z,92.00
2022-10-11T11:00:14.538Z,92.30
2022-10-11T11:03:45.733Z,91.40
2022-10-11T11:07:22.029Z,91.80
2022-10-11T11:10:56.816Z,91.90
2022-10-11T11:14:41.281Z,92.10
2022-10-11T11:18:28.796Z,91.90
2022-10-11T11:22:03.186Z,91.80
2022-10-11T11:25:45.092Z,92.00
2022-10-11T11:29:28.288Z,92.10
2022-10-11T11:33:11.409Z,92.10
2022-10-11T11:36:44.293Z,91.90
2022-10-11T11:40:17.497Z,91.00
2022-10-11T11:43:58.077Z,91.10
2022-10-11T11:47:30.261Z,90.40
2022-10-11T11:51:04.354Z,90.30
2022-10-11T11:54:49.220Z,89.30
2022-10-11T11:58:35.269Z,88.80
2022-10-11T12:02:21.102Z,88.90
2022-10-11T12:06:22.741Z,89.70
2022-10-11T12:09:51.288Z,88.50
2022-10-11T12:13:22.754Z,90.00
2022-10-11T12:17:15.723Z,89.40
2022-10-11T12:20:41.528Z,88.40
2022-10-11T12:24:23.300Z,90.50
2022-10-11T12:27:50.989Z,90.30
2022-10-11T12:31:24.000Z,90.80
2022-10-11T12:34:47.513Z,89.40
2022-10-11T12:38:22.586Z,89.40
2022-10-11T12:42:06.199Z,88.60
2022-10-11T12:45:35.571Z,89.20
2022-10-11T12:49:08.484Z,90.20
2022-10-11T12:52:52.981Z,89.90
2022-10-11T12:56:38.577Z,89.30
2022-10-11T13:00:18.909Z,88.70
2022-10-11T13:03:49.081Z,88.40
2022-10-11T13:07:23.374Z,89.40
2022-10-11T13:10:49.005Z,90.20
2022-10-11T13:14:20.081Z,90.90
2022-10-11T13:17:44.367Z,90.90
2022-10-11T13:21:23.111Z,91.80
2022-10-11T13:24:47.825Z,91.10
2022-10-11T13:28:11.467Z,92.30
2022-10-11T13:31:35.255Z,92.40
2022-10-11T13:35:06.887Z,91.20
2022-10-11T13:38:36.483Z,90.80
2022-10-11T13:42:01.425Z,90.40
2022-10-11T13:45:27.841Z,90.90
2022-10-11T13:49:22.223Z,91.50
2022-10-11T13:52:56.401Z,91.10
2022-10-11T13:56:21.344Z,91.00
2022-10-11T13:59:45.131Z,91.00
2022-10-11T14:03:20.435Z,91.10
2022-10-11T14:06:48.970Z,90.80
2022-10-11T14:10:22.949Z,90.70
2022-10-11T14:13:49.728Z,90.40
2022-10-11T14:17:18.909Z,90.90
2022-10-11T14:20:42.392Z,90.20
2022-10-11T14:24:10.454Z,90.40
2022-10-11T14:27:34.720Z,90.20
2022-10-11T14:30:59.534Z,89.70
2022-10-11T14:34:28.131Z,89.40
2022-10-11T14:37:52.370Z,89.60
2022-10-11T14:41:16.371Z,89.30
2022-10-11T14:44:40.041Z,89.20
2022-10-11T14:48:06.068Z,89.00
2022-10-11T14:51:35.482Z,88.70
2022-10-11T14:54:58.871Z,88.10
2022-10-11T14:58:22.326Z,88.50
2022-10-11T15:01:46.715Z,88.60
2022-10-11T15:05:11.679Z,88.10
2022-10-11T15:08:35.053Z,87.00
2022-10-11T15:11:59.230Z,87.50
2022-10-11T15:15:30.538Z,88.00
2022-10-11T15:18:54.188Z,87.80
2022-10-11T15:22:19.020Z,87.90
2022-10-11T15:25:43.363Z,87.60
2022-10-11T15:29:10.890Z,88.10
2022-10-11T15:32:34.464Z,88.20
2022-10-11T15:35:57.934Z,87.40
2022-10-11T15:39:31.393Z,87.80
2022-10-11T15:42:55.866Z,87.50
2022-10-11T15:46:22.985Z,88.30
2022-10-11T15:49:46.670Z,88.50
2022-10-11T15:53:14.665Z,88.50
2022-10-11T15:56:39.811Z,88.10
2022-10-11T16:00:03.721Z,88.00
2022-10-11T16:03:36.557Z,87.70
2022-10-11T16:06:59.980Z,87.30
2022-10-11T16:10:23.749Z,87.30
2022-10-11T16:13:49.894Z,87.50
2022-10-11T16:17:13.398Z,87.40
2022-10-11T16:20:39.734Z,87.40
2022-10-11T16:24:04.026Z,87.10
2022-10-11T16:27:27.815Z,87.50
2022-10-11T16:30:52.691Z,87.80
2022-10-11T16:34:16.585Z,87.70
2022-10-11T16:37:41.594Z,87.70
2022-10-11T16:41:07.168Z,87.80
2022-10-11T16:44:32.429Z,87.50
2022-10-11T16:47:57.354Z,87.40
2022-10-11T16:51:21.053Z,86.80
2022-10-11T16:54:46.591Z,86.70
2022-10-11T16:58:11.031Z,86.40
2022-10-11T17:01:34.679Z,86.00
2022-10-11T17:04:59.474Z,86.00
2022-10-11T17:08:23.008Z,85.90
2022-10-11T17:11:46.476Z,86.50
2022-10-11T17:15:12.628Z,87.10
2022-10-11T17:18:36.179Z,85.90
2022-10-11T17:22:01.091Z,86.10
2022-10-11T17:25:25.181Z,86.20
2022-10-11T17:28:49.134Z,86.40
2022-10-11T17:32:12.919Z,86.60
2022-10-11T17:35:36.391Z,86.60
2022-10-11T17:39:04.578Z,86.60
2022-10-11T17:42:28.038Z,86.50
2022-10-11T17:45:56.423Z,86.80
2022-10-11T17:49:19.985Z,86.20
2022-10-11T17:52:43.413Z,86.50
2022-10-11T17:56:11.613Z,86.40
2022-10-11T17:59:35.497Z,85.70
2022-10-11T18:02:58.957Z,85.50
2022-10-11T18:06:22.427Z,85.00
2022-10-11T18:09:46.045Z,85.10
2022-10-11T18:13:15.151Z,85.70
2022-10-11T18:16:40.179Z,86.10
2022-10-11T18:20:03.591Z,87.80
2022-10-11T18:23:28.074Z,87.30
2022-10-11T18:26:51.492Z,87.40
2022-10-11T18:30:16.620Z,87.80
2022-10-11T18:33:40.125Z,87.90
2022-10-11T18:37:03.614Z,88.40
2022-10-11T18:40:27.081Z,88.70
2022-10-11T18:43:52.361Z,88.90
2022-10-11T18:47:17.499Z,89.00
2022-10-11T18:50:41.124Z,88.60
2022-10-11T18:54:06.893Z,89.20
2022-10-11T18:57:31.271Z,89.40
2022-10-11T19:00:54.884Z,89.40
2022-10-11T19:04:19.937Z,89.00
2022-10-11T19:07:43.406Z,88.50
2022-10-11T19:11:08.931Z,88.90
2022-10-11T19:14:33.176Z,89.10
2022-10-11T19:17:56.691Z,89.10
2022-10-11T19:21:21.999Z,88.70
2022-10-11T19:24:45.772Z,88.10
2022-10-11T19:28:12.398Z,88.20
2022-10-11T19:31:44.447Z,88.70
2022-10-11T19:35:10.079Z,88.70
2022-10-11T19:38:36.609Z,89.20
2022-10-11T19:42:01.251Z,89.80
2022-10-11T19:45:24.834Z,88.90
2022-10-11T19:48:51.774Z,88.90
2022-10-11T19:52:15.309Z,89.00
2022-10-11T19:55:44.266Z,89.20
2022-10-11T19:59:11.436Z,88.90
2022-10-11T20:02:34.963Z,88.70
2022-10-11T20:06:01.284Z,88.10
2022-10-11T20:09:29.641Z,88.20
2022-10-11T20:12:55.504Z,88.30
2022-10-11T20:16:22.871Z,88.20
2022-10-11T20:19:46.344Z,88.10
2022-10-11T20:23:12.593Z,88.70
2022-10-11T20:26:39.059Z,89.10
2022-10-11T20:30:04.449Z,88.20
2022-10-11T20:33:31.805Z,87.90
2022-10-11T20:36:55.402Z,88.10
2022-10-11T20:40:19.027Z,88.20
2022-10-11T20:43:43.712Z,88.70
2022-10-11T20:47:08.705Z,89.10
2022-10-11T20:50:32.239Z,89.00
2022-10-11T20:53:56.378Z,89.20
2022-10-11T20:57:20.038Z,89.50
2022-10-11T21:00:44.692Z,89.00
2022-10-11T21:04:18.291Z,89.10
2022-10-11T21:07:41.727Z,88.90
2022-10-11T21:11:07.042Z,88.90
2022-10-11T21:14:30.443Z,88.90
2022-10-11T21:17:54.330Z,88.90
2022-10-11T21:21:19.668Z,88.90
2022-10-11T21:24:43.071Z,89.00
2022-10-11T21:28:07.562Z,89.30
2022-10-11T21:31:34.302Z,89.40
2022-10-11T21:34:58.252Z,89.80
2022-10-11T21:38:23.140Z,89.90
2022-10-11T21:41:46.682Z,89.70
2022-10-11T21:45:10.168Z,90.00
2022-10-11T21:48:33.684Z,90.10
2022-10-11T21:51:57.696Z,90.20
2022-10-11T21:55:22.629Z,90.20
2022-10-11T21:58:48.715Z,89.00
2022-10-11T22:02:12.260Z,89.00
2022-10-11T22:05:35.824Z,89.00
2022-10-11T22:08:59.408Z,89.00
2022-10-11T22:12:24.258Z,88.90
2022-10-11T22:15:47.880Z,88.70
2022-10-11T22:19:11.502Z,88.90
2022-10-11T22:22:35.220Z,88.70
2022-10-11T22:26:04.917Z,88.50
2022-10-11T22:29:33.973Z,88.90
2022-10-11T22:32:58.786Z,88.10
2022-10-11T22:36:24.110Z,88.30
2022-10-11T22:39:47.626Z,88.40
2022-10-11T22:43:11.144Z,88.50
2022-10-11T22:46:35.996Z,89.30
2022-10-11T22:49:59.467Z,88.30
2022-10-11T22:53:23.248Z,88.90
2022-10-11T22:56:46.708Z,88.90
2022-10-11T23:00:11.759Z,89.10
2022-10-11T23:03:36.717Z,89.10
2022-10-11T23:07:04.821Z,88.70
2022-10-11T23:10:28.944Z,89.20
2022-10-11T23:13:52.437Z,89.00
2022-10-11T23:17:15.850Z,89.80
2022-10-11T23:20:41.248Z,88.50
2022-10-11T23:24:05.489Z,88.30
2022-10-11T23:27:30.102Z,88.60
2022-10-11T23:30:53.573Z,88.50
2022-10-11T23:34:17.182Z,88.50
2022-10-11T23:37:41.976Z,88.20
2022-10-11T23:41:05.708Z,87.50
2022-10-11T23:44:29.160Z,87.60
2022-10-11T23:47:52.656Z,87.10
2022-10-11T23:51:16.882Z,86.60
2022-10-11T23:54:42.098Z,86.70
2022-10-11T23:58:05.535Z,86.20
